sensor_id;sensor_type;location;lat;lon;timestamp;P1;durP1;ratioP1;P2;durP2;ratioP2
69256;SDS011;56376;53.356;-1.748;2023-03-23T00:01:23;4.55;;;1.70;;
69256;SDS011;56376;53.356;-1.748;2023-03-23T00:03:51;4.63;;;1.40;;
69256;SDS011;56376;53.356;-1.748;2023-03-23T00:06:19;3.65;;;1.50;;
69256;SDS011;56376;53.356;-1.748;2023-03-23T00:08:46;6.05;;;1.27;;
69256;SDS011;56376;53.356;-1.748;2023-03-23T00:11:15;6.50;;;1.30;;
69256;SDS011;56376;53.356;-1.748;2023-03-23T00:13:43;4.05;;;2.15;;
69256;SDS011;56376;53.356;-1.748;2023-03-23T00:16:10;3.70;;;1.83;;
69256;SDS011;56376;53.356;-1.748;2023-03-23T00:18:43;4.20;;;1.40;;
69256;SDS011;56376;53.356;-1.748;2023-03-23T00:21:13;3.28;;;1.20;;
69256;SDS011;56376;53.356;-1.748;2023-03-23T00:23:38;5.20;;;2.07;;
69256;SDS011;56376;53.356;-1.748;2023-03-23T00:26:05;4.97;;;1.40;;
69256;SDS011;56376;53.356;-1.748;2023-03-23T00:28:30;4.77;;;1.70;;
69256;SDS011;56376;53.356;-1.748;2023-03-23T00:31:00;3.03;;;1.33;;
69256;SDS011;56376;53.356;-1.748;2023-03-23T00:33:31;5.57;;;1.13;;
69256;SDS011;56376;53.356;-1.748;2023-03-23T00:36:03;6.17;;;1.50;;
69256;SDS011;56376;53.356;-1.748;2023-03-23T00:38:30;3.13;;;1.23;;
69256;SDS011;56376;53.356;-1.748;2023-03-23T00:40:56;4.03;;;1.33;;
69256;SDS011;56376;53.356;-1.748;2023-03-23T00:43:22;5.77;;;1.93;;
69256;SDS011;56376;53.356;-1.748;2023-03-23T00:45:49;3.83;;;1.70;;
69256;SDS011;56376;53.356;-1.748;2023-03-23T00:48:20;4.38;;;1.30;;
69256;SDS011;56376;53.356;-1.748;2023-03-23T00:50:49;5.20;;;1.60;;
69256;SDS011;56376;53.356;-1.748;2023-03-23T00:53:16;6.30;;;1.60;;
69256;SDS011;56376;53.356;-1.748;2023-03-23T00:55:42;4.47;;;1.73;;
69256;SDS011;56376;53.356;-1.748;2023-03-23T00:58:09;4.70;;;1.30;;
69256;SDS011;56376;53.356;-1.748;2023-03-23T01:00:35;6.07;;;1.40;;
69256;SDS011;56376;53.356;-1.748;2023-03-23T01:03:01;3.20;;;1.40;;
69256;SDS011;56376;53.356;-1.748;2023-03-23T01:05:28;5.30;;;1.63;;
69256;SDS011;56376;53.356;-1.748;2023-03-23T01:07:57;5.23;;;1.50;;
69256;SDS011;56376;53.356;-1.748;2023-03-23T01:10:23;6.40;;;1.80;;
69256;SDS011;56376;53.356;-1.748;2023-03-23T01:12:51;5.97;;;1.70;;
69256;SDS011;56376;53.356;-1.748;2023-03-23T01:15:17;6.17;;;2.33;;
69256;SDS011;56376;53.356;-1.748;2023-03-23T01:17:44;5.93;;;1.87;;
69256;SDS011;56376;53.356;-1.748;2023-03-23T01:20:10;5.80;;;1.30;;
69256;SDS011;56376;53.356;-1.748;2023-03-23T01:22:37;7.27;;;1.80;;
69256;SDS011;56376;53.356;-1.748;2023-03-23T01:25:04;6.67;;;1.80;;
69256;SDS011;56376;53.356;-1.748;2023-03-23T01:27:30;3.80;;;1.37;;
69256;SDS011;56376;53.356;-1.748;2023-03-23T01:29:56;5.20;;;1.63;;
69256;SDS011;56376;53.356;-1.748;2023-03-23T01:32:21;5.73;;;1.40;;
69256;SDS011;56376;53.356;-1.748;2023-03-23T01:34:46;4.00;;;1.20;;
69256;SDS011;56376;53.356;-1.748;2023-03-23T01:37:12;6.37;;;1.73;;
69256;SDS011;56376;53.356;-1.748;2023-03-23T01:39:37;3.30;;;1.20;;
69256;SDS011;56376;53.356;-1.748;2023-03-23T01:42:03;4.47;;;1.37;;
69256;SDS011;56376;53.356;-1.748;2023-03-23T01:46:57;5.97;;;1.67;;
69256;SDS011;56376;53.356;-1.748;2023-03-23T01:49:27;3.43;;;1.30;;
69256;SDS011;56376;53.356;-1.748;2023-03-23T01:51:57;5.10;;;1.85;;
69256;SDS011;56376;53.356;-1.748;2023-03-23T01:54:27;4.50;;;1.50;;
69256;SDS011;56376;53.356;-1.748;2023-03-23T01:57:02;5.03;;;1.50;;
69256;SDS011;56376;53.356;-1.748;2023-03-23T01:59:32;7.77;;;1.93;;
69256;SDS011;56376;53.356;-1.748;2023-03-23T02:02:00;4.90;;;1.27;;
69256;SDS011;56376;53.356;-1.748;2023-03-23T02:04:27;5.43;;;1.37;;
69256;SDS011;56376;53.356;-1.748;2023-03-23T02:06:54;7.20;;;2.33;;
69256;SDS011;56376;53.356;-1.748;2023-03-23T02:09:22;4.37;;;1.60;;
69256;SDS011;56376;53.356;-1.748;2023-03-23T02:11:50;4.60;;;1.73;;
69256;SDS011;56376;53.356;-1.748;2023-03-23T02:14:16;7.73;;;2.00;;
69256;SDS011;56376;53.356;-1.748;2023-03-23T02:27:45;4.03;;;1.53;;
69256;SDS011;56376;53.356;-1.748;2023-03-23T02:33:08;4.93;;;1.60;;
69256;SDS011;56376;53.356;-1.748;2023-03-23T02:35:42;6.40;;;1.73;;
69256;SDS011;56376;53.356;-1.748;2023-03-23T02:38:21;3.97;;;1.30;;
69256;SDS011;56376;53.356;-1.748;2023-03-23T02:40:55;3.07;;;1.30;;
69256;SDS011;56376;53.356;-1.748;2023-03-23T02:43:25;4.77;;;1.20;;
69256;SDS011;56376;53.356;-1.748;2023-03-23T02:45:53;5.17;;;1.30;;
69256;SDS011;56376;53.356;-1.748;2023-03-23T02:48:22;6.00;;;1.73;;
69256;SDS011;56376;53.356;-1.748;2023-03-23T02:50:52;4.63;;;2.30;;
69256;SDS011;56376;53.356;-1.748;2023-03-23T02:53:20;4.43;;;2.07;;
69256;SDS011;56376;53.356;-1.748;2023-03-23T02:55:49;1.67;;;0.97;;
69256;SDS011;56376;53.356;-1.748;2023-03-23T02:58:18;3.50;;;1.20;;
69256;SDS011;56376;53.356;-1.748;2023-03-23T03:00:44;8.50;;;1.90;;
69256;SDS011;56376;53.356;-1.748;2023-03-23T03:03:14;3.70;;;1.20;;
69256;SDS011;56376;53.356;-1.748;2023-03-23T03:08:18;5.17;;;2.00;;
69256;SDS011;56376;53.356;-1.748;2023-03-23T03:11:02;5.00;;;1.80;;
69256;SDS011;56376;53.356;-1.748;2023-03-23T03:16:36;3.60;;;1.40;;
69256;SDS011;56376;53.356;-1.748;2023-03-23T03:19:15;9.87;;;1.77;;
69256;SDS011;56376;53.356;-1.748;2023-03-23T03:21:46;8.27;;;2.00;;
69256;SDS011;56376;53.356;-1.748;2023-03-23T03:24:15;4.93;;;1.63;;
69256;SDS011;56376;53.356;-1.748;2023-03-23T03:26:45;7.27;;;2.13;;
69256;SDS011;56376;53.356;-1.748;2023-03-23T03:29:32;8.43;;;1.87;;
69256;SDS011;56376;53.356;-1.748;2023-03-23T03:32:01;5.43;;;1.40;;
69256;SDS011;56376;53.356;-1.748;2023-03-23T03:34:30;5.30;;;1.70;;
69256;SDS011;56376;53.356;-1.748;2023-03-23T03:36:57;5.67;;;1.90;;
69256;SDS011;56376;53.356;-1.748;2023-03-23T03:39:24;4.63;;;1.80;;
69256;SDS011;56376;53.356;-1.748;2023-03-23T03:41:50;4.07;;;1.87;;
69256;SDS011;56376;53.356;-1.748;2023-03-23T03:44:15;7.33;;;2.00;;
69256;SDS011;56376;53.356;-1.748;2023-03-23T03:46:41;6.50;;;1.80;;
69256;SDS011;56376;53.356;-1.748;2023-03-23T03:49:07;3.73;;;1.73;;
69256;SDS011;56376;53.356;-1.748;2023-03-23T03:51:35;3.77;;;1.67;;
69256;SDS011;56376;53.356;-1.748;2023-03-23T03:54:01;6.20;;;2.43;;
69256;SDS011;56376;53.356;-1.748;2023-03-23T03:56:26;5.50;;;2.20;;
69256;SDS011;56376;53.356;-1.748;2023-03-23T03:58:52;6.27;;;2.13;;
69256;SDS011;56376;53.356;-1.748;2023-03-23T04:01:19;6.20;;;2.00;;
69256;SDS011;56376;53.356;-1.748;2023-03-23T04:03:49;7.00;;;1.67;;
69256;SDS011;56376;53.356;-1.748;2023-03-23T04:06:16;5.63;;;1.80;;
69256;SDS011;56376;53.356;-1.748;2023-03-23T04:08:43;6.57;;;2.00;;
69256;SDS011;56376;53.356;-1.748;2023-03-23T04:11:10;6.20;;;1.80;;
69256;SDS011;56376;53.356;-1.748;2023-03-23T04:13:37;6.03;;;1.90;;
69256;SDS011;56376;53.356;-1.748;2023-03-23T04:16:03;6.30;;;1.77;;
69256;SDS011;56376;53.356;-1.748;2023-03-23T04:18:29;6.70;;;2.27;;
69256;SDS011;56376;53.356;-1.748;2023-03-23T04:20:57;5.57;;;2.07;;
69256;SDS011;56376;53.356;-1.748;2023-03-23T04:23:24;4.60;;;2.30;;
69256;SDS011;56376;53.356;-1.748;2023-03-23T04:25:50;5.50;;;2.37;;
69256;SDS011;56376;53.356;-1.748;2023-03-23T04:28:18;5.77;;;2.50;;
69256;SDS011;56376;53.356;-1.748;2023-03-23T04:30:49;8.53;;;2.47;;
69256;SDS011;56376;53.356;-1.748;2023-03-23T04:33:21;6.50;;;3.03;;
69256;SDS011;56376;53.356;-1.748;2023-03-23T04:35:50;5.57;;;1.87;;
69256;SDS011;56376;53.356;-1.748;2023-03-23T04:38:19;6.80;;;1.97;;
69256;SDS011;56376;53.356;-1.748;2023-03-23T04:40:46;6.93;;;1.80;;
69256;SDS011;56376;53.356;-1.748;2023-03-23T04:43:13;5.37;;;2.13;;
69256;SDS011;56376;53.356;-1.748;2023-03-23T04:45:40;10.53;;;2.73;;
69256;SDS011;56376;53.356;-1.748;2023-03-23T04:48:06;7.97;;;2.50;;
69256;SDS011;56376;53.356;-1.748;2023-03-23T04:50:33;6.37;;;2.10;;
69256;SDS011;56376;53.356;-1.748;2023-03-23T04:53:00;6.00;;;2.07;;
69256;SDS011;56376;53.356;-1.748;2023-03-23T04:55:32;5.30;;;2.23;;
69256;SDS011;56376;53.356;-1.748;2023-03-23T04:58:03;6.80;;;2.20;;
69256;SDS011;56376;53.356;-1.748;2023-03-23T05:00:30;6.07;;;3.07;;
69256;SDS011;56376;53.356;-1.748;2023-03-23T05:02:57;5.53;;;2.87;;
69256;SDS011;56376;53.356;-1.748;2023-03-23T05:05:24;8.10;;;2.27;;
69256;SDS011;56376;53.356;-1.748;2023-03-23T05:07:50;7.07;;;2.53;;
69256;SDS011;56376;53.356;-1.748;2023-03-23T05:10:16;6.23;;;1.90;;
69256;SDS011;56376;53.356;-1.748;2023-03-23T05:12:42;5.83;;;2.00;;
69256;SDS011;56376;53.356;-1.748;2023-03-23T05:15:08;3.33;;;1.43;;
69256;SDS011;56376;53.356;-1.748;2023-03-23T05:17:34;3.90;;;1.60;;
69256;SDS011;56376;53.356;-1.748;2023-03-23T05:20:00;4.07;;;1.60;;
69256;SDS011;56376;53.356;-1.748;2023-03-23T05:22:33;4.90;;;1.90;;
69256;SDS011;56376;53.356;-1.748;2023-03-23T05:24:59;3.83;;;1.90;;
69256;SDS011;56376;53.356;-1.748;2023-03-23T05:27:27;5.37;;;1.70;;
69256;SDS011;56376;53.356;-1.748;2023-03-23T05:29:55;6.90;;;2.27;;
69256;SDS011;56376;53.356;-1.748;2023-03-23T05:32:25;4.30;;;1.80;;
69256;SDS011;56376;53.356;-1.748;2023-03-23T05:34:57;6.73;;;2.10;;
69256;SDS011;56376;53.356;-1.748;2023-03-23T05:37:24;11.47;;;4.10;;
69256;SDS011;56376;53.356;-1.748;2023-03-23T05:39:51;7.53;;;2.60;;
69256;SDS011;56376;53.356;-1.748;2023-03-23T05:42:18;8.20;;;2.43;;
69256;SDS011;56376;53.356;-1.748;2023-03-23T05:44:44;7.30;;;2.93;;
69256;SDS011;56376;53.356;-1.748;2023-03-23T05:47:10;6.67;;;1.70;;
69256;SDS011;56376;53.356;-1.748;2023-03-23T05:49:35;11.93;;;2.80;;
69256;SDS011;56376;53.356;-1.748;2023-03-23T05:52:01;9.70;;;2.47;;
69256;SDS011;56376;53.356;-1.748;2023-03-23T05:54:27;5.10;;;1.90;;
69256;SDS011;56376;53.356;-1.748;2023-03-23T05:56:52;4.53;;;1.93;;
69256;SDS011;56376;53.356;-1.748;2023-03-23T05:59:18;7.73;;;2.17;;
69256;SDS011;56376;53.356;-1.748;2023-03-23T06:01:43;10.77;;;2.67;;
69256;SDS011;56376;53.356;-1.748;2023-03-23T06:04:09;5.93;;;2.43;;
69256;SDS011;56376;53.356;-1.748;2023-03-23T06:06:37;5.63;;;2.20;;
69256;SDS011;56376;53.356;-1.748;2023-03-23T06:09:02;4.33;;;1.70;;
69256;SDS011;56376;53.356;-1.748;2023-03-23T06:11:28;4.73;;;1.70;;
69256;SDS011;56376;53.356;-1.748;2023-03-23T06:13:53;8.77;;;2.77;;
69256;SDS011;56376;53.356;-1.748;2023-03-23T06:16:19;8.17;;;3.60;;
69256;SDS011;56376;53.356;-1.748;2023-03-23T06:18:45;10.23;;;2.30;;
69256;SDS011;56376;53.356;-1.748;2023-03-23T06:21:11;7.40;;;2.83;;
69256;SDS011;56376;53.356;-1.748;2023-03-23T06:23:37;13.47;;;2.77;;
69256;SDS011;56376;53.356;-1.748;2023-03-23T06:26:04;7.03;;;2.60;;
69256;SDS011;56376;53.356;-1.748;2023-03-23T06:28:32;10.33;;;3.13;;
69256;SDS011;56376;53.356;-1.748;2023-03-23T06:30:59;7.03;;;2.33;;
69256;SDS011;56376;53.356;-1.748;2023-03-23T06:33:25;7.83;;;2.80;;
69256;SDS011;56376;53.356;-1.748;2023-03-23T06:35:51;6.40;;;2.53;;
69256;SDS011;56376;53.356;-1.748;2023-03-23T06:38:16;8.30;;;2.20;;
69256;SDS011;56376;53.356;-1.748;2023-03-23T06:40:42;9.50;;;3.07;;
69256;SDS011;56376;53.356;-1.748;2023-03-23T06:43:11;11.60;;;2.73;;
69256;SDS011;56376;53.356;-1.748;2023-03-23T06:45:36;9.33;;;3.70;;
69256;SDS011;56376;53.356;-1.748;2023-03-23T06:48:01;10.93;;;3.00;;
69256;SDS011;56376;53.356;-1.748;2023-03-23T06:50:27;11.33;;;3.40;;
69256;SDS011;56376;53.356;-1.748;2023-03-23T06:52:53;13.50;;;3.80;;
69256;SDS011;56376;53.356;-1.748;2023-03-23T06:55:18;12.20;;;3.23;;
69256;SDS011;56376;53.356;-1.748;2023-03-23T06:57:44;9.00;;;3.43;;
69256;SDS011;56376;53.356;-1.748;2023-03-23T07:00:10;10.10;;;3.07;;
69256;SDS011;56376;53.356;-1.748;2023-03-23T07:02:42;11.73;;;3.47;;
69256;SDS011;56376;53.356;-1.748;2023-03-23T07:05:08;11.13;;;2.83;;
69256;SDS011;56376;53.356;-1.748;2023-03-23T07:07:38;12.73;;;2.40;;
69256;SDS011;56376;53.356;-1.748;2023-03-23T07:10:05;9.97;;;2.67;;
69256;SDS011;56376;53.356;-1.748;2023-03-23T07:12:33;11.23;;;2.60;;
69256;SDS011;56376;53.356;-1.748;2023-03-23T07:15:00;11.13;;;2.90;;
69256;SDS011;56376;53.356;-1.748;2023-03-23T07:17:27;13.57;;;3.97;;
69256;SDS011;56376;53.356;-1.748;2023-03-23T07:19:53;15.10;;;4.20;;
69256;SDS011;56376;53.356;-1.748;2023-03-23T07:22:19;8.67;;;3.03;;
69256;SDS011;56376;53.356;-1.748;2023-03-23T07:24:44;10.83;;;3.30;;
69256;SDS011;56376;53.356;-1.748;2023-03-23T07:27:10;10.93;;;2.50;;
69256;SDS011;56376;53.356;-1.748;2023-03-23T07:29:35;9.23;;;2.57;;
69256;SDS011;56376;53.356;-1.748;2023-03-23T07:32:03;9.53;;;2.90;;
69256;SDS011;56376;53.356;-1.748;2023-03-23T07:34:30;8.30;;;2.60;;
69256;SDS011;56376;53.356;-1.748;2023-03-23T07:36:56;10.10;;;2.70;;
69256;SDS011;56376;53.356;-1.748;2023-03-23T07:39:22;12.43;;;3.63;;
69256;SDS011;56376;53.356;-1.748;2023-03-23T07:41:49;14.50;;;4.00;;
69256;SDS011;56376;53.356;-1.748;2023-03-23T07:44:14;11.43;;;3.80;;
69256;SDS011;56376;53.356;-1.748;2023-03-23T07:46:40;10.23;;;3.10;;
69256;SDS011;56376;53.356;-1.748;2023-03-23T07:49:07;12.23;;;3.43;;
69256;SDS011;56376;53.356;-1.748;2023-03-23T07:51:32;17.27;;;4.33;;
69256;SDS011;56376;53.356;-1.748;2023-03-23T07:53:59;18.77;;;4.90;;
69256;SDS011;56376;53.356;-1.748;2023-03-23T07:56:24;11.67;;;3.87;;
69256;SDS011;56376;53.356;-1.748;2023-03-23T07:58:50;10.43;;;3.53;;
69256;SDS011;56376;53.356;-1.748;2023-03-23T08:01:16;16.63;;;3.80;;
69256;SDS011;56376;53.356;-1.748;2023-03-23T08:03:42;12.77;;;3.50;;
69256;SDS011;56376;53.356;-1.748;2023-03-23T08:06:07;11.20;;;3.33;;
69256;SDS011;56376;53.356;-1.748;2023-03-23T08:08:33;9.37;;;3.17;;
69256;SDS011;56376;53.356;-1.748;2023-03-23T08:10:59;12.90;;;3.47;;
69256;SDS011;56376;53.356;-1.748;2023-03-23T08:13:25;8.10;;;2.60;;
69256;SDS011;56376;53.356;-1.748;2023-03-23T08:15:54;6.63;;;2.20;;
69256;SDS011;56376;53.356;-1.748;2023-03-23T08:18:20;10.80;;;3.70;;
69256;SDS011;56376;53.356;-1.748;2023-03-23T08:20:45;12.83;;;3.53;;
69256;SDS011;56376;53.356;-1.748;2023-03-23T08:23:11;14.57;;;3.67;;
69256;SDS011;56376;53.356;-1.748;2023-03-23T08:25:36;9.60;;;3.67;;
69256;SDS011;56376;53.356;-1.748;2023-03-23T08:28:02;11.03;;;3.57;;
69256;SDS011;56376;53.356;-1.748;2023-03-23T08:30:29;12.37;;;3.80;;
69256;SDS011;56376;53.356;-1.748;2023-03-23T08:32:57;15.70;;;3.67;;
69256;SDS011;56376;53.356;-1.748;2023-03-23T08:35:23;18.63;;;4.60;;
69256;SDS011;56376;53.356;-1.748;2023-03-23T08:37:49;14.27;;;3.53;;
69256;SDS011;56376;53.356;-1.748;2023-03-23T08:40:16;15.67;;;3.97;;
69256;SDS011;56376;53.356;-1.748;2023-03-23T08:42:44;11.93;;;4.00;;
69256;SDS011;56376;53.356;-1.748;2023-03-23T08:45:11;10.83;;;2.93;;
69256;SDS011;56376;53.356;-1.748;2023-03-23T08:47:40;18.13;;;3.73;;
69256;SDS011;56376;53.356;-1.748;2023-03-23T08:50:06;11.17;;;3.60;;
69256;SDS011;56376;53.356;-1.748;2023-03-23T08:52:33;10.93;;;3.27;;
69256;SDS011;56376;53.356;-1.748;2023-03-23T08:54:59;11.30;;;3.40;;
69256;SDS011;56376;53.356;-1.748;2023-03-23T08:57:25;9.97;;;3.10;;
69256;SDS011;56376;53.356;-1.748;2023-03-23T08:59:51;11.27;;;2.97;;
69256;SDS011;56376;53.356;-1.748;2023-03-23T09:02:19;15.87;;;4.13;;
69256;SDS011;56376;53.356;-1.748;2023-03-23T09:04:45;12.60;;;3.33;;
69256;SDS011;56376;53.356;-1.748;2023-03-23T09:07:11;12.83;;;3.43;;
69256;SDS011;56376;53.356;-1.748;2023-03-23T09:09:39;8.35;;;2.75;;
69256;SDS011;56376;53.356;-1.748;2023-03-23T09:12:05;13.30;;;2.85;;
69256;SDS011;56376;53.356;-1.748;2023-03-23T09:14:32;12.13;;;3.03;;
69256;SDS011;56376;53.356;-1.748;2023-03-23T09:16:57;9.88;;;3.22;;
69256;SDS011;56376;53.356;-1.748;2023-03-23T09:19:23;10.63;;;2.70;;
69256;SDS011;56376;53.356;-1.748;2023-03-23T09:21:48;10.93;;;3.00;;
69256;SDS011;56376;53.356;-1.748;2023-03-23T09:24:14;15.00;;;3.20;;
69256;SDS011;56376;53.356;-1.748;2023-03-23T09:26:39;12.38;;;3.63;;
69256;SDS011;56376;53.356;-1.748;2023-03-23T09:29:05;16.92;;;3.80;;
69256;SDS011;56376;53.356;-1.748;2023-03-23T09:31:30;13.00;;;3.38;;
69256;SDS011;56376;53.356;-1.748;2023-03-23T09:33:56;9.30;;;3.40;;
69256;SDS011;56376;53.356;-1.748;2023-03-23T09:36:23;14.80;;;3.55;;
69256;SDS011;56376;53.356;-1.748;2023-03-23T09:38:51;12.50;;;3.30;;
69256;SDS011;56376;53.356;-1.748;2023-03-23T09:46:49;8.88;;;2.80;;
69256;SDS011;56376;53.356;-1.748;2023-03-23T09:49:32;11.32;;;3.42;;
69256;SDS011;56376;53.356;-1.748;2023-03-23T09:52:03;10.48;;;3.70;;
69256;SDS011;56376;53.356;-1.748;2023-03-23T09:57:09;13.05;;;3.75;;
69256;SDS011;56376;53.356;-1.748;2023-03-23T10:02:15;9.25;;;3.10;;
69256;SDS011;56376;53.356;-1.748;2023-03-23T10:04:50;9.77;;;3.10;;
69256;SDS011;56376;53.356;-1.748;2023-03-23T10:07:19;12.27;;;3.05;;
69256;SDS011;56376;53.356;-1.748;2023-03-23T10:09:47;11.10;;;2.95;;
69256;SDS011;56376;53.356;-1.748;2023-03-23T10:12:36;9.07;;;2.70;;
69256;SDS011;56376;53.356;-1.748;2023-03-23T10:15:28;13.02;;;3.17;;
69256;SDS011;56376;53.356;-1.748;2023-03-23T10:18:04;9.45;;;2.83;;
69256;SDS011;56376;53.356;-1.748;2023-03-23T10:20:56;9.07;;;3.45;;
69256;SDS011;56376;53.356;-1.748;2023-03-23T10:23:32;12.32;;;3.63;;
69256;SDS011;56376;53.356;-1.748;2023-03-23T10:26:11;7.65;;;2.80;;
69256;SDS011;56376;53.356;-1.748;2023-03-23T10:28:40;14.23;;;3.75;;
69256;SDS011;56376;53.356;-1.748;2023-03-23T10:31:10;9.63;;;2.95;;
69256;SDS011;56376;53.356;-1.748;2023-03-23T10:33:43;12.43;;;3.72;;
69256;SDS011;56376;53.356;-1.748;2023-03-23T10:36:15;9.05;;;3.05;;
69256;SDS011;56376;53.356;-1.748;2023-03-23T10:38:43;6.50;;;2.90;;
69256;SDS011;56376;53.356;-1.748;2023-03-23T10:41:17;6.43;;;2.20;;
69256;SDS011;56376;53.356;-1.748;2023-03-23T10:43:44;8.00;;;2.85;;
69256;SDS011;56376;53.356;-1.748;2023-03-23T10:48:58;11.95;;;3.50;;
69256;SDS011;56376;53.356;-1.748;2023-03-23T10:51:30;9.18;;;3.28;;
69256;SDS011;56376;53.356;-1.748;2023-03-23T10:54:00;13.95;;;4.10;;
69256;SDS011;56376;53.356;-1.748;2023-03-23T10:56:28;11.65;;;3.20;;
69256;SDS011;56376;53.356;-1.748;2023-03-23T10:59:10;11.75;;;3.72;;
69256;SDS011;56376;53.356;-1.748;2023-03-23T11:01:37;8.15;;;2.30;;
69256;SDS011;56376;53.356;-1.748;2023-03-23T11:04:03;8.15;;;2.50;;
69256;SDS011;56376;53.356;-1.748;2023-03-23T11:06:35;8.23;;;2.97;;
69256;SDS011;56376;53.356;-1.748;2023-03-23T11:09:11;14.80;;;3.55;;
69256;SDS011;56376;53.356;-1.748;2023-03-23T11:11:43;15.93;;;3.50;;
69256;SDS011;56376;53.356;-1.748;2023-03-23T11:16:57;11.25;;;3.17;;
69256;SDS011;56376;53.356;-1.748;2023-03-23T11:19:32;9.45;;;2.70;;
69256;SDS011;56376;53.356;-1.748;2023-03-23T11:24:33;6.95;;;2.85;;
69256;SDS011;56376;53.356;-1.748;2023-03-23T11:27:01;13.07;;;3.55;;
69256;SDS011;56376;53.356;-1.748;2023-03-23T11:29:32;9.82;;;3.35;;
69256;SDS011;56376;53.356;-1.748;2023-03-23T11:34:25;6.47;;;2.00;;
69256;SDS011;56376;53.356;-1.748;2023-03-23T11:36:57;5.93;;;1.95;;
69256;SDS011;56376;53.356;-1.748;2023-03-23T11:39:29;6.30;;;2.28;;
69256;SDS011;56376;53.356;-1.748;2023-03-23T11:41:57;3.83;;;1.40;;
69256;SDS011;56376;53.356;-1.748;2023-03-23T11:44:33;4.57;;;1.73;;
69256;SDS011;56376;53.356;-1.748;2023-03-23T11:47:08;3.53;;;1.45;;
69256;SDS011;56376;53.356;-1.748;2023-03-23T11:52:59;5.50;;;1.75;;
69256;SDS011;56376;53.356;-1.748;2023-03-23T11:55:35;7.57;;;2.30;;
69256;SDS011;56376;53.356;-1.748;2023-03-23T11:58:06;4.25;;;1.80;;
69256;SDS011;56376;53.356;-1.748;2023-03-23T12:00:38;5.28;;;2.05;;
69256;SDS011;56376;53.356;-1.748;2023-03-23T12:06:13;6.85;;;2.50;;
69256;SDS011;56376;53.356;-1.748;2023-03-23T12:14:31;11.15;;;2.75;;
69256;SDS011;56376;53.356;-1.748;2023-03-23T12:23:03;8.48;;;2.60;;
69256;SDS011;56376;53.356;-1.748;2023-03-23T12:28:48;6.03;;;2.17;;
69256;SDS011;56376;53.356;-1.748;2023-03-23T12:31:33;11.25;;;2.95;;
69256;SDS011;56376;53.356;-1.748;2023-03-23T12:42:44;4.10;;;1.40;;
69256;SDS011;56376;53.356;-1.748;2023-03-23T12:45:45;6.78;;;2.20;;
69256;SDS011;56376;53.356;-1.748;2023-03-23T12:48:26;6.50;;;1.80;;
69256;SDS011;56376;53.356;-1.748;2023-03-23T12:53:34;5.63;;;1.85;;
69256;SDS011;56376;53.356;-1.748;2023-03-23T12:56:11;6.22;;;2.15;;
69256;SDS011;56376;53.356;-1.748;2023-03-23T12:58:44;5.22;;;2.15;;
69256;SDS011;56376;53.356;-1.748;2023-03-23T13:01:14;7.85;;;2.03;;
69256;SDS011;56376;53.356;-1.748;2023-03-23T13:09:19;8.52;;;1.85;;
69256;SDS011;56376;53.356;-1.748;2023-03-23T13:11:49;5.22;;;1.75;;
69256;SDS011;56376;53.356;-1.748;2023-03-23T13:17:11;6.78;;;2.17;;
69256;SDS011;56376;53.356;-1.748;2023-03-23T13:28:14;7.55;;;2.75;;
69256;SDS011;56376;53.356;-1.748;2023-03-23T13:30:52;9.60;;;2.47;;
69256;SDS011;56376;53.356;-1.748;2023-03-23T13:33:18;5.40;;;2.10;;
69256;SDS011;56376;53.356;-1.748;2023-03-23T13:35:46;6.45;;;2.20;;
69256;SDS011;56376;53.356;-1.748;2023-03-23T13:40:46;7.90;;;2.25;;
69256;SDS011;56376;53.356;-1.748;2023-03-23T13:43:12;5.05;;;1.77;;
69256;SDS011;56376;53.356;-1.748;2023-03-23T13:45:45;8.23;;;2.00;;
69256;SDS011;56376;53.356;-1.748;2023-03-23T13:50:57;7.28;;;2.33;;
69256;SDS011;56376;53.356;-1.748;2023-03-23T13:53:28;6.85;;;2.45;;
69256;SDS011;56376;53.356;-1.748;2023-03-23T13:56:06;7.45;;;2.70;;
69256;SDS011;56376;53.356;-1.748;2023-03-23T13:58:44;4.10;;;1.80;;
69256;SDS011;56376;53.356;-1.748;2023-03-23T14:01:16;8.32;;;2.00;;
69256;SDS011;56376;53.356;-1.748;2023-03-23T14:03:58;5.88;;;1.80;;
69256;SDS011;56376;53.356;-1.748;2023-03-23T14:06:25;7.38;;;2.90;;
69256;SDS011;56376;53.356;-1.748;2023-03-23T14:09:03;7.68;;;2.03;;
69256;SDS011;56376;53.356;-1.748;2023-03-23T14:11:31;4.95;;;1.60;;
69256;SDS011;56376;53.356;-1.748;2023-03-23T14:14:07;3.67;;;1.98;;
69256;SDS011;56376;53.356;-1.748;2023-03-23T14:19:22;4.50;;;1.60;;
69256;SDS011;56376;53.356;-1.748;2023-03-23T14:21:59;7.10;;;2.00;;
69256;SDS011;56376;53.356;-1.748;2023-03-23T14:24:32;3.33;;;1.67;;
69256;SDS011;56376;53.356;-1.748;2023-03-23T14:27:11;7.35;;;2.22;;
69256;SDS011;56376;53.356;-1.748;2023-03-23T14:29:39;7.03;;;1.95;;
69256;SDS011;56376;53.356;-1.748;2023-03-23T14:32:05;6.30;;;2.45;;
69256;SDS011;56376;53.356;-1.748;2023-03-23T14:34:33;5.35;;;1.70;;
69256;SDS011;56376;53.356;-1.748;2023-03-23T14:37:00;4.90;;;1.60;;
69256;SDS011;56376;53.356;-1.748;2023-03-23T14:42:03;3.47;;;1.80;;
69256;SDS011;56376;53.356;-1.748;2023-03-23T14:44:32;6.13;;;2.00;;
69256;SDS011;56376;53.356;-1.748;2023-03-23T14:47:06;8.77;;;1.80;;
69256;SDS011;56376;53.356;-1.748;2023-03-23T14:49:39;5.72;;;2.20;;
69256;SDS011;56376;53.356;-1.748;2023-03-23T14:54:35;6.10;;;2.45;;
69256;SDS011;56376;53.356;-1.748;2023-03-23T14:57:10;7.13;;;2.38;;
69256;SDS011;56376;53.356;-1.748;2023-03-23T14:59:44;6.63;;;2.00;;
69256;SDS011;56376;53.356;-1.748;2023-03-23T15:02:14;7.97;;;2.20;;
69256;SDS011;56376;53.356;-1.748;2023-03-23T15:04:49;5.72;;;2.20;;
69256;SDS011;56376;53.356;-1.748;2023-03-23T15:07:18;6.35;;;2.38;;
69256;SDS011;56376;53.356;-1.748;2023-03-23T15:09:45;6.75;;;2.72;;
69256;SDS011;56376;53.356;-1.748;2023-03-23T15:12:19;7.05;;;1.92;;
69256;SDS011;56376;53.356;-1.748;2023-03-23T15:14:47;5.57;;;1.80;;
69256;SDS011;56376;53.356;-1.748;2023-03-23T15:17:20;6.28;;;2.00;;
69256;SDS011;56376;53.356;-1.748;2023-03-23T15:19:51;6.57;;;2.55;;
69256;SDS011;56376;53.356;-1.748;2023-03-23T15:22:28;6.65;;;2.17;;
69256;SDS011;56376;53.356;-1.748;2023-03-23T15:27:51;6.20;;;1.80;;
69256;SDS011;56376;53.356;-1.748;2023-03-23T15:32:47;5.78;;;1.92;;
69256;SDS011;56376;53.356;-1.748;2023-03-23T15:35:15;5.38;;;2.17;;
69256;SDS011;56376;53.356;-1.748;2023-03-23T15:37:44;5.78;;;1.90;;
69256;SDS011;56376;53.356;-1.748;2023-03-23T15:42:47;8.27;;;2.28;;
69256;SDS011;56376;53.356;-1.748;2023-03-23T15:47:45;5.22;;;2.17;;
69256;SDS011;56376;53.356;-1.748;2023-03-23T15:50:46;4.43;;;2.05;;
69256;SDS011;56376;53.356;-1.748;2023-03-23T15:53:15;5.03;;;1.95;;
69256;SDS011;56376;53.356;-1.748;2023-03-23T15:56:04;5.13;;;1.90;;
69256;SDS011;56376;53.356;-1.748;2023-03-23T15:58:32;8.63;;;2.55;;
69256;SDS011;56376;53.356;-1.748;2023-03-23T16:00:57;5.55;;;1.75;;
69256;SDS011;56376;53.356;-1.748;2023-03-23T16:03:26;7.35;;;2.33;;
69256;SDS011;56376;53.356;-1.748;2023-03-23T16:05:55;6.30;;;2.10;;
69256;SDS011;56376;53.356;-1.748;2023-03-23T16:08:23;9.25;;;3.58;;
69256;SDS011;56376;53.356;-1.748;2023-03-23T16:10:49;11.30;;;2.95;;
69256;SDS011;56376;53.356;-1.748;2023-03-23T16:13:15;11.30;;;3.08;;
69256;SDS011;56376;53.356;-1.748;2023-03-23T16:15:40;8.98;;;2.53;;
69256;SDS011;56376;53.356;-1.748;2023-03-23T16:18:08;6.95;;;2.63;;
69256;SDS011;56376;53.356;-1.748;2023-03-23T16:20:41;10.45;;;2.92;;
69256;SDS011;56376;53.356;-1.748;2023-03-23T16:23:07;7.65;;;2.80;;
69256;SDS011;56376;53.356;-1.748;2023-03-23T16:25:32;11.40;;;3.00;;
69256;SDS011;56376;53.356;-1.748;2023-03-23T16:27:58;11.15;;;2.95;;
69256;SDS011;56376;53.356;-1.748;2023-03-23T16:30:24;10.20;;;2.90;;
69256;SDS011;56376;53.356;-1.748;2023-03-23T16:32:51;8.85;;;2.83;;
69256;SDS011;56376;53.356;-1.748;2023-03-23T16:35:17;4.55;;;2.20;;
69256;SDS011;56376;53.356;-1.748;2023-03-23T16:37:50;6.00;;;1.92;;